Time;durP1;ratioP1;P1;durP2;ratioP2;P2;SDS_P1;SDS_P2;PMS_P1;PMS_P2;Temp;Humidity;BMP_temperature;BMP_pressure;BME280_temperature;BME280_humidity;BME280_pressure;Samples;Min_cycle;Max_cycle;Signal;HPM_P1;HPM_P2
2023/10/13 00:02:01;;;;;;;14.40;11.83;;;16.90;99.90;;;;;;4970663;28;20588;-72
2023/10/13 00:04:27;;;;;;;16.73;11.37;;;16.90;99.90;;;;;;4974454;28;20628;-72
2023/10/13 00:06:52;;;;;;;14.93;11.13;;;16.90;99.90;;;;;;4975389;28;20185;-72
2023/10/13 00:09:24;;;;;;;21.80;12.23;;;16.80;99.90;;;;;;4975498;28;20177;-72
2023/10/13 00:11:49;;;;;;;16.67;12.07;;;16.90;99.90;;;;;;4975698;28;20177;-71
2023/10/13 00:14:18;;;;;;;13.53;10.87;;;16.90;99.90;;;;;;4974721;28;20165;-71
2023/10/13 00:19:37;;;;;;;19.00;12.17;;;16.80;99.90;;;;;;4975342;28;20236;-71
2023/10/13 00:22:09;;;;;;;21.23;12.63;;;16.80;99.90;;;;;;4975349;28;20177;-72
2023/10/13 00:24:49;;;;;;;17.07;12.00;;;16.90;99.90;;;;;;4975202;28;20197;-71
2023/10/13 00:27:30;;;;;;;17.63;11.73;;;16.80;99.90;;;;;;4974022;28;20268;-71
2023/10/13 00:32:55;;;;;;;19.67;12.17;;;16.90;99.90;;;;;;4975555;28;20231;-71
2023/10/13 00:35:24;;;;;;;21.53;14.17;;;16.90;99.90;;;;;;4974990;28;20181;-71
2023/10/13 00:37:54;;;;;;;17.17;12.77;;;16.90;99.90;;;;;;4974602;28;20240;-71
2023/10/13 00:43:03;;;;;;;15.93;12.93;;;16.80;99.90;;;;;;4974863;28;20263;-72
2023/10/13 00:45:33;;;;;;;20.27;13.23;;;16.90;99.90;;;;;;4974571;28;20232;-71
2023/10/13 00:48:01;;;;;;;19.17;13.80;;;16.80;99.90;;;;;;4974962;28;20181;-71
2023/10/13 00:50:27;;;;;;;21.50;13.77;;;16.90;99.90;;;;;;4974877;28;20603;-71
2023/10/13 00:52:54;;;;;;;16.43;13.13;;;16.90;99.90;;;;;;4974475;28;20189;-71
2023/10/13 00:55:22;;;;;;;17.97;14.10;;;16.90;99.90;;;;;;4974056;28;20191;-72
2023/10/13 00:57:53;;;;;;;20.10;13.63;;;16.90;99.90;;;;;;4974795;28;20522;-72
2023/10/13 01:00:24;;;;;;;18.37;12.97;;;16.90;99.90;;;;;;4974346;28;20221;-71
2023/10/13 01:03:06;;;;;;;20.83;12.80;;;16.90;99.90;;;;;;4974066;28;20181;-71
2023/10/13 01:05:33;;;;;;;16.63;12.93;;;17.00;99.90;;;;;;4973184;28;20213;-71
2023/10/13 01:08:03;;;;;;;17.87;12.87;;;16.90;99.90;;;;;;4974723;28;20169;-72
2023/10/13 01:10:32;;;;;;;18.50;13.30;;;17.00;99.90;;;;;;4974089;28;20201;-71
2023/10/13 01:12:59;;;;;;;19.10;13.07;;;16.90;99.90;;;;;;4974128;28;20228;-71
2023/10/13 01:15:29;;;;;;;19.43;13.13;;;17.00;99.90;;;;;;4973486;28;20610;-72
2023/10/13 01:18:14;;;;;;;19.23;13.27;;;17.00;99.90;;;;;;4974294;28;20543;-71
2023/10/13 01:20:45;;;;;;;19.03;13.43;;;17.00;99.90;;;;;;4974401;28;20197;-72
2023/10/13 01:23:18;;;;;;;21.67;13.90;;;17.00;99.90;;;;;;4973854;28;20177;-72
2023/10/13 01:25:44;;;;;;;16.70;12.53;;;17.00;99.90;;;;;;4973933;28;20201;-71
2023/10/13 01:28:09;;;;;;;18.00;12.93;;;17.00;99.90;;;;;;4974744;28;20177;-72
2023/10/13 01:30:38;;;;;;;22.90;13.10;;;17.00;99.90;;;;;;4975287;28;20194;-72
2023/10/13 01:33:04;;;;;;;21.70;13.13;;;17.00;99.90;;;;;;4975064;28;20260;-73
2023/10/13 01:35:41;;;;;;;22.23;13.60;;;17.00;99.90;;;;;;4974329;28;20649;-71
2023/10/13 01:38:08;;;;;;;22.70;14.83;;;17.00;99.90;;;;;;4974201;28;20169;-72
2023/10/13 01:40:34;;;;;;;17.50;12.50;;;17.00;99.90;;;;;;4973987;28;20356;-71
2023/10/13 01:43:01;;;;;;;16.90;14.23;;;17.00;99.90;;;;;;4973749;28;20258;-71
2023/10/13 01:45:30;;;;;;;17.50;13.30;;;16.90;99.90;;;;;;4973154;28;20213;-72
2023/10/13 01:47:56;;;;;;;18.70;14.40;;;16.90;99.90;;;;;;4972901;28;20184;-71
2023/10/13 01:50:29;;;;;;;19.73;13.87;;;16.90;99.90;;;;;;4973184;28;20673;-72
2023/10/13 01:55:59;;;;;;;20.83;14.60;;;16.90;99.90;;;;;;4952066;29;20186;-72
2023/10/13 01:58:29;;;;;;;19.07;13.77;;;16.90;99.90;;;;;;4951431;29;20322;-72
2023/10/13 02:00:56;;;;;;;20.43;15.10;;;16.90;99.90;;;;;;4962287;28;20225;-71
2023/10/13 02:03:22;;;;;;;20.13;13.67;;;16.90;99.90;;;;;;4973048;28;20183;-71
2023/10/13 02:05:49;;;;;;;23.27;15.17;;;16.90;99.90;;;;;;4973063;28;20201;-72
2023/10/13 02:08:23;;;;;;;23.37;15.20;;;16.90;99.90;;;;;;4973331;28;20173;-73
2023/10/13 02:10:53;;;;;;;21.47;14.63;;;16.90;99.90;;;;;;4973232;28;20217;-72
2023/10/13 02:13:22;;;;;;;17.63;14.83;;;16.90;99.90;;;;;;4973284;28;20248;-72
2023/10/13 02:15:51;;;;;;;23.13;15.03;;;16.90;99.90;;;;;;4973043;28;20272;-72
2023/10/13 02:18:26;;;;;;;21.10;14.70;;;16.90;99.90;;;;;;4973102;28;20240;-71
2023/10/13 02:20:56;;;;;;;18.17;14.90;;;16.90;99.90;;;;;;4971786;28;20288;-72
2023/10/13 02:23:29;;;;;;;22.30;14.73;;;16.90;99.90;;;;;;4973016;28;20217;-71
2023/10/13 02:26:12;;;;;;;17.60;13.93;;;16.90;99.90;;;;;;4972922;28;20205;-71
2023/10/13 02:28:38;;;;;;;24.30;15.13;;;16.80;99.90;;;;;;4972661;28;20316;-72
2023/10/13 02:31:04;;;;;;;25.03;15.90;;;16.90;99.90;;;;;;4973068;28;20284;-72
2023/10/13 02:33:30;;;;;;;22.67;14.90;;;16.90;99.90;;;;;;4972836;28;20654;-72
2023/10/13 02:36:03;;;;;;;19.90;15.63;;;16.80;99.90;;;;;;4973195;28;20174;-71
2023/10/13 02:38:45;;;;;;;24.60;15.33;;;16.90;99.90;;;;;;4973139;28;20200;-72
2023/10/13 02:41:27;;;;;;;19.43;14.87;;;16.80;99.90;;;;;;4972945;28;20229;-71
2023/10/13 02:43:53;;;;;;;19.70;15.33;;;16.80;99.90;;;;;;4972798;28;20264;-71
2023/10/13 02:46:21;;;;;;;26.30;15.33;;;16.80;99.90;;;;;;4972755;28;20210;-71
2023/10/13 02:48:53;;;;;;;18.97;15.30;;;16.80;99.90;;;;;;4972841;28;20200;-72
2023/10/13 02:51:31;;;;;;;19.90;15.10;;;16.80;99.90;;;;;;4972568;28;20194;-71
2023/10/13 02:54:02;;;;;;;22.40;15.30;;;16.80;99.90;;;;;;4972465;28;20254;-72
2023/10/13 02:56:29;;;;;;;20.67;15.07;;;16.80;99.90;;;;;;4972985;28;20264;-71
2023/10/13 02:58:56;;;;;;;19.03;15.03;;;16.70;99.90;;;;;;4972865;28;20169;-72
2023/10/13 03:01:27;;;;;;;20.50;15.30;;;16.70;99.90;;;;;;4971881;28;20197;-71
2023/10/13 03:03:55;;;;;;;19.73;15.37;;;16.70;99.90;;;;;;4972635;28;20181;-72
2023/10/13 03:06:23;;;;;;;20.90;14.47;;;16.70;99.90;;;;;;4971378;28;20215;-73
2023/10/13 03:08:49;;;;;;;25.80;15.07;;;16.70;99.90;;;;;;4972563;28;20180;-72
2023/10/13 03:11:21;;;;;;;21.63;15.00;;;16.70;99.90;;;;;;4972575;28;20625;-71
2023/10/13 03:13:47;;;;;;;21.70;15.87;;;16.70;99.90;;;;;;4972499;28;20169;-72
2023/10/13 03:16:15;;;;;;;27.07;14.90;;;16.70;99.90;;;;;;4972193;28;20205;-72
2023/10/13 03:18:51;;;;;;;22.83;15.70;;;16.70;99.90;;;;;;4972772;28;20177;-72
2023/10/13 03:21:28;;;;;;;26.83;14.87;;;16.70;99.90;;;;;;4972520;28;20197;-72
2023/10/13 03:23:54;;;;;;;19.90;14.30;;;16.70;99.90;;;;;;4972330;28;20173;-72
2023/10/13 03:26:20;;;;;;;18.90;15.07;;;16.70;99.90;;;;;;4972708;28;20255;-72
2023/10/13 03:28:52;;;;;;;17.87;15.03;;;16.70;99.90;;;;;;4972873;28;20257;-72
2023/10/13 03:31:27;;;;;;;25.77;15.87;;;16.70;99.90;;;;;;4972598;28;20193;-72
2023/10/13 03:33:58;;;;;;;18.57;14.93;;;16.70;99.90;;;;;;4972126;28;20177;-71
2023/10/13 03:39:28;;;;;;;20.70;15.43;;;16.70;99.90;;;;;;4963078;28;20673;-72
2023/10/13 03:41:54;;;;;;;25.53;15.13;;;16.70;99.90;;;;;;4976116;28;20583;-71
2023/10/13 03:44:20;;;;;;;25.03;16.37;;;16.70;99.90;;;;;;4976164;28;20177;-72
2023/10/13 03:46:47;;;;;;;21.67;16.03;;;16.70;99.90;;;;;;4976124;28;20200;-72
2023/10/13 03:49:21;;;;;;;23.23;16.27;;;16.70;99.90;;;;;;4975778;28;20188;-72
2023/10/13 03:51:53;;;;;;;21.43;16.77;;;16.70;99.90;;;;;;4976271;28;20190;-72
2023/10/13 03:54:20;;;;;;;25.27;16.73;;;16.70;99.90;;;;;;4974169;28;20657;-72
2023/10/13 03:56:45;;;;;;;25.43;16.87;;;16.80;99.90;;;;;;4975627;28;20232;-72
2023/10/13 04:04:14;;;;;;;26.60;16.70;;;16.80;99.90;;;;;;4975796;28;20177;-71
2023/10/13 04:17:28;;;;;;;28.10;18.03;;;16.90;99.90;;;;;;4975753;28;21424;-71
2023/10/13 04:26:04;;;;;;;24.10;17.33;;;16.90;99.90;;;;;;4975074;28;20201;-71
2023/10/13 04:41:22;;;;;;;28.03;17.57;;;16.90;99.90;;;;;;4975223;28;20776;-72
2023/10/13 04:43:56;;;;;;;25.77;17.80;;;16.90;99.90;;;;;;4974989;28;20189;-72
2023/10/13 04:46:39;;;;;;;28.93;17.80;;;16.90;99.90;;;;;;4974760;28;20204;-72
2023/10/13 04:49:10;;;;;;;25.63;17.07;;;17.00;99.90;;;;;;4974981;28;20170;-72
2023/10/13 04:54:33;;;;;;;27.53;17.73;;;17.00;99.90;;;;;;4974927;28;20325;-72
2023/10/13 06:29:38;;;;;;;22.47;16.67;;;17.60;99.90;;;;;;4973183;28;20626;-72
2023/10/13 06:32:10;;;;;;;28.40;16.80;;;17.60;99.90;;;;;;4972795;28;20178;-73
2023/10/13 06:34:45;;;;;;;23.60;16.07;;;17.60;99.90;;;;;;4972824;28;20568;-73
2023/10/13 06:37:26;;;;;;;29.17;15.93;;;17.70;99.90;;;;;;4972581;28;20185;-72
2023/10/13 06:39:56;;;;;;;26.13;16.30;;;17.70;99.90;;;;;;4972889;28;20248;-73
2023/10/13 06:42:27;;;;;;;26.27;16.80;;;17.70;99.90;;;;;;4972422;28;20182;-73
2023/10/13 06:44:54;;;;;;;25.40;18.23;;;17.60;99.90;;;;;;4972374;28;20213;-74
2023/10/13 06:47:21;;;;;;;22.90;16.23;;;17.70;99.90;;;;;;4972178;28;20209;-73
2023/10/13 06:49:51;;;;;;;23.63;16.93;;;17.70;99.90;;;;;;4972317;28;20197;-73
2023/10/13 06:52:22;;;;;;;25.60;17.03;;;17.70;99.90;;;;;;4971920;28;20661;-72
2023/10/13 06:54:50;;;;;;;24.87;17.30;;;17.70;99.90;;;;;;4972170;28;20181;-73
2023/10/13 06:57:20;;;;;;;19.50;14.97;;;17.70;99.90;;;;;;4972165;28;20606;-73
2023/10/13 06:59:46;;;;;;;24.83;15.63;;;17.70;99.90;;;;;;4972435;28;20186;-72
2023/10/13 07:02:21;;;;;;;25.00;14.97;;;17.70;99.90;;;;;;4972007;28;20232;-72
2023/10/13 07:04:47;;;;;;;24.47;15.37;;;17.80;99.90;;;;;;4972441;28;20244;-73
2023/10/13 07:07:15;;;;;;;19.80;14.47;;;17.80;99.90;;;;;;4972096;28;20247;-72
2023/10/13 07:10:07;;;;;;;19.13;14.37;;;17.90;99.90;;;;;;4972261;28;20709;-72
2023/10/13 07:12:33;;;;;;;24.37;15.50;;;17.90;99.90;;;;;;4972523;28;20190;-73
2023/10/13 07:15:19;;;;;;;18.30;13.87;;;18.00;99.90;;;;;;4978156;28;20172;-72
2023/10/13 07:17:54;;;;;;;21.30;14.23;;;18.00;99.90;;;;;;4978337;28;20199;-72
2023/10/13 07:22:57;;;;;;;19.33;13.83;;;18.10;99.90;;;;;;4978646;28;20531;-72
2023/10/13 07:25:26;;;;;;;24.47;14.57;;;18.10;99.90;;;;;;4978478;28;20228;-72
2023/10/13 07:27:54;;;;;;;23.90;13.27;;;18.10;99.90;;;;;;4978686;28;20506;-72
2023/10/13 07:30:26;;;;;;;23.70;13.77;;;18.10;99.90;;;;;;4978513;28;20272;-72
2023/10/13 07:32:52;;;;;;;20.57;13.13;;;18.10;99.90;;;;;;4977496;28;20188;-72
2023/10/13 07:35:20;;;;;;;22.20;13.97;;;18.10;99.90;;;;;;4978412;28;20173;-72
2023/10/13 07:37:52;;;;;;;28.93;14.67;;;18.20;99.90;;;;;;4978531;28;20210;-72
2023/10/13 07:43:08;;;;;;;18.37;13.60;;;18.30;99.90;;;;;;4978427;28;20541;-72
2023/10/13 07:45:40;;;;;;;19.87;13.37;;;18.30;99.90;;;;;;4977957;28;20236;-71
2023/10/13 07:48:12;;;;;;;21.33;14.03;;;18.30;99.90;;;;;;4978194;28;20170;-71
2023/10/13 07:50:39;;;;;;;18.70;13.60;;;18.40;99.90;;;;;;4978942;28;20205;-72
2023/10/13 07:53:14;;;;;;;22.07;13.17;;;18.40;99.90;;;;;;4978160;28;20210;-72
2023/10/13 07:55:40;;;;;;;25.53;14.57;;;18.50;99.90;;;;;;4978448;28;20176;-71
2023/10/13 07:58:07;;;;;;;20.47;13.63;;;18.50;99.90;;;;;;4982256;28;20234;-72
2023/10/13 08:05:57;;;;;;;22.53;12.57;;;18.70;99.90;;;;;;4978385;28;20209;-71
2023/10/13 08:08:25;;;;;;;21.40;11.77;;;18.80;99.90;;;;;;4978083;28;20238;-72
2023/10/13 08:10:56;;;;;;;13.60;11.03;;;18.90;99.90;;;;;;4978157;28;20228;-72
2023/10/13 08:13:22;;;;;;;19.67;11.37;;;19.00;99.90;;;;;;4977427;28;20204;-71
2023/10/13 08:15:48;;;;;;;20.43;11.90;;;19.00;99.90;;;;;;4978104;28;20173;-71
2023/10/13 08:18:19;;;;;;;14.37;10.23;;;19.00;99.90;;;;;;4978599;28;20185;-71
2023/10/13 08:20:51;;;;;;;17.33;10.63;;;19.10;99.90;;;;;;4978625;28;20319;-72
2023/10/13 08:23:20;;;;;;;19.60;10.80;;;19.20;99.90;;;;;;4977902;28;20178;-71
2023/10/13 08:31:21;;;;;;;17.63;9.73;;;19.50;99.90;;;;;;4975599;28;20224;-71
2023/10/13 08:33:47;;;;;;;12.40;9.63;;;19.60;99.90;;;;;;4974938;28;20453;-71
2023/10/13 08:36:46;;;;;;;17.57;10.17;;;19.90;99.90;;;;;;4975278;28;20256;-72
2023/10/13 08:39:57;;;;;;;14.10;8.70;;;20.10;99.90;;;;;;4973476;28;20190;-71
2023/10/13 08:42:10;;;;;;;15.55;8.23;;;20.30;99.90;;;;;;4974806;28;20240;-71
2023/10/13 08:44:37;;;;;;;14.13;7.40;;;20.70;99.90;;;;;;4974808;28;20252;-71
2023/10/13 08:47:03;;;;;;;12.18;7.35;;;21.10;99.90;;;;;;4973285;28;20244;-71
2023/10/13 08:49:32;;;;;;;11.13;6.63;;;21.30;99.90;;;;;;4974757;28;20276;-72
2023/10/13 08:52:06;;;;;;;12.27;6.80;;;21.40;99.90;;;;;;4974785;28;20169;-72
2023/10/13 08:54:38;;;;;;;12.88;6.80;;;21.50;99.90;;;;;;4974479;28;20340;-71
2023/10/13 08:58:02;;;;;;;10.05;6.43;;;21.70;99.90;;;;;;4974426;28;20196;-72
2023/10/13 08:59:53;;;;;;;9.70;5.28;;;22.10;99.90;;;;;;4973923;28;20201;-71
2023/10/13 09:02:44;;;;;;;11.10;5.20;;;22.70;99.90;;;;;;4972395;28;20169;-71
2023/10/13 09:05:35;;;;;;;6.85;5.05;;;23.30;99.90;;;;;;4973998;28;20583;-71
2023/10/13 09:08:03;;;;;;;12.52;5.25;;;23.70;99.90;;;;;;4974034;28;20177;-71
2023/10/13 09:10:33;;;;;;;10.45;5.22;;;24.00;99.90;;;;;;4974211;28;20263;-71
2023/10/13 09:13:02;;;;;;;12.50;6.07;;;24.20;99.90;;;;;;4974270;28;20218;-70
2023/10/13 09:18:38;;;;;;;10.18;5.60;;;24.30;99.90;;;;;;4974080;28;20180;-72
2023/10/13 09:23:48;;;;;;;11.77;5.68;;;24.00;99.90;;;;;;4974000;28;20185;-72
2023/10/13 09:26:16;;;;;;;11.35;5.20;;;23.70;99.90;;;;;;4973508;28;20251;-71
2023/10/13 09:28:43;;;;;;;9.10;4.82;;;23.60;99.90;;;;;;4974538;28;20261;-71
2023/10/13 09:31:09;;;;;;;10.10;5.30;;;23.60;99.90;;;;;;4973738;28;20236;-71
2023/10/13 09:33:36;;;;;;;12.60;5.78;;;23.70;99.90;;;;;;4972344;28;20169;-72
2023/10/13 09:36:04;;;;;;;10.70;4.93;;;23.70;99.90;;;;;;4973265;28;20680;-72
2023/10/13 09:38:33;;;;;;;9.15;5.00;;;23.80;99.90;;;;;;4973887;28;20634;-71
2023/10/13 09:41:17;;;;;;;8.55;5.95;;;23.80;99.90;;;;;;4974078;28;20569;-71
2023/10/13 09:43:43;;;;;;;10.27;5.93;;;23.90;99.90;;;;;;4973615;28;20181;-72
2023/10/13 09:46:17;;;;;;;9.65;5.53;;;24.00;99.90;;;;;;4972006;28;20208;-71
2023/10/13 09:48:47;;;;;;;11.35;6.65;;;24.00;99.90;;;;;;4973709;28;20173;-73
2023/10/13 09:51:14;;;;;;;8.52;5.80;;;23.90;99.90;;;;;;4973000;28;20559;-71
2023/10/13 09:53:53;;;;;;;10.73;5.95;;;23.90;99.90;;;;;;4973390;28;20182;-73
2023/10/13 09:56:27;;;;;;;12.82;5.03;;;23.90;99.90;;;;;;4973423;28;20165;-71
2023/10/13 09:59:13;;;;;;;15.57;6.07;;;24.00;99.90;;;;;;4973745;28;20669;-71
2023/10/13 10:01:57;;;;;;;13.60;5.63;;;24.20;99.90;;;;;;4973443;28;20201;-70
2023/10/13 10:04:23;;;;;;;10.88;5.97;;;24.40;99.90;;;;;;4972809;28;20460;-73
2023/10/13 10:06:53;;;;;;;9.65;5.75;;;24.70;99.90;;;;;;4973234;28;20178;-72
2023/10/13 10:09:22;;;;;;;11.75;6.25;;;25.20;99.90;;;;;;4973115;28;20205;-72
2023/10/13 10:12:21;;;;;;;10.85;6.45;;;25.50;99.90;;;;;;4972075;28;20545;-72
2023/10/13 10:15:02;;;;;;;10.10;6.00;;;25.70;99.90;;;;;;4973048;28;20696;-71
2023/10/13 10:17:33;;;;;;;8.40;6.18;;;25.60;99.90;;;;;;4973152;28;20193;-71
2023/10/13 10:19:59;;;;;;;8.88;6.28;;;25.50;99.90;;;;;;4973063;28;20196;-71
2023/10/13 10:22:39;;;;;;;7.75;5.90;;;25.60;99.90;;;;;;4972976;28;20189;-70
2023/10/13 10:25:25;;;;;;;13.93;5.82;;;25.70;99.90;;;;;;4972951;28;20217;-71
2023/10/13 10:27:57;;;;;;;9.48;6.03;;;25.80;99.90;;;;;;4973121;28;20169;-71
2023/10/13 10:30:27;;;;;;;8.43;5.72;;;25.90;99.90;;;;;;4972597;28;20310;-72
2023/10/13 10:32:59;;;;;;;15.52;6.60;;;25.90;99.90;;;;;;4972960;28;20545;-70
2023/10/13 10:35:35;;;;;;;8.27;5.28;;;25.90;99.90;;;;;;4972627;28;20272;-71
2023/10/13 10:38:24;;;;;;;11.18;5.82;;;25.90;99.90;;;;;;4971609;28;20185;-70
2023/10/13 10:41:06;;;;;;;9.25;5.78;;;26.00;99.90;;;;;;4953695;28;20284;-70
2023/10/13 10:43:46;;;;;;;12.93;5.53;;;26.20;99.90;;;;;;4952696;28;20257;-72
2023/10/13 10:46:12;;;;;;;9.95;6.10;;;26.30;99.90;;;;;;4963709;28;20313;-71
2023/10/13 10:48:42;;;;;;;10.57;5.47;;;26.50;99.90;;;;;;4972343;28;20170;-71
2023/10/13 10:51:14;;;;;;;10.75;6.13;;;26.60;99.90;;;;;;4972099;28;20578;-71
2023/10/13 10:53:43;;;;;;;10.77;6.45;;;26.70;99.90;;;;;;4972482;28;20181;-70
2023/10/13 10:56:20;;;;;;;9.18;5.38;;;26.60;99.90;;;;;;4972806;28;20537;-72
2023/10/13 10:58:47;;;;;;;11.18;5.68;;;26.60;99.90;;;;;;4972468;28;20209;-71
2023/10/13 11:01:19;;;;;;;7.95;6.63;;;26.60;99.90;;;;;;4972416;28;20236;-70
2023/10/13 11:03:57;;;;;;;9.15;6.03;;;26.60;99.90;;;;;;4971473;28;20676;-71
2023/10/13 11:06:26;;;;;;;11.98;6.10;;;26.60;99.90;;;;;;4970834;28;20580;-72
2023/10/13 11:09:18;;;;;;;13.93;6.07;;;26.60;99.90;;;;;;4972334;28;20178;-71
2023/10/13 11:11:52;;;;;;;10.45;6.53;;;26.90;99.90;;;;;;4972474;28;20193;-71
2023/10/13 11:14:24;;;;;;;11.77;6.05;;;27.10;99.90;;;;;;4971785;28;20237;-72
2023/10/13 11:16:53;;;;;;;9.98;5.78;;;27.10;99.90;;;;;;4972317;28;20170;-72
2023/10/13 11:19:25;;;;;;;11.43;5.72;;;26.90;99.90;;;;;;4972107;28;20622;-71
2023/10/13 11:21:53;;;;;;;7.40;5.13;;;26.70;99.90;;;;;;4970669;28;20757;-70
2023/10/13 11:24:21;;;;;;;15.95;6.50;;;26.50;99.90;;;;;;4972063;28;20165;-70
2023/10/13 11:26:50;;;;;;;15.38;7.10;;;26.40;99.90;;;;;;4972239;28;20304;-71
2023/10/13 11:29:19;;;;;;;15.82;7.28;;;26.20;99.90;;;;;;4972030;28;20241;-71
2023/10/13 11:31:46;;;;;;;13.57;7.10;;;26.10;99.90;;;;;;4972145;28;20252;-70
2023/10/13 11:34:16;;;;;;;13.20;7.22;;;26.10;99.90;;;;;;4971825;28;20177;-70
2023/10/13 11:36:42;;;;;;;15.13;6.45;;;26.10;99.90;;;;;;4972221;28;20178;-72
2023/10/13 11:39:08;;;;;;;13.40;6.60;;;26.10;99.90;;;;;;4972303;28;20181;-71
2023/10/13 11:41:34;;;;;;;19.55;7.80;;;26.00;99.90;;;;;;4971797;28;20200;-70
2023/10/13 11:44:12;;;;;;;11.18;6.00;;;26.00;99.90;;;;;;4971806;28;20186;-71
2023/10/13 11:52:09;;;;;;;14.10;5.82;;;25.90;99.90;;;;;;4971991;28;20189;-71
2023/10/13 11:54:36;;;;;;;10.73;6.25;;;25.90;99.90;;;;;;4971842;28;20542;-71
2023/10/13 11:57:01;;;;;;;12.38;6.65;;;25.80;99.90;;;;;;4972192;28;20180;-71
2023/10/13 11:59:28;;;;;;;12.00;5.38;;;25.70;99.90;;;;;;4972897;28;20177;-71
2023/10/13 12:04:54;;;;;;;19.55;6.25;;;25.50;99.90;;;;;;4975465;28;20732;-72
2023/10/13 12:07:26;;;;;;;15.65;5.25;;;25.40;99.90;;;;;;4975223;28;20614;-72
2023/10/13 12:12:25;;;;;;;8.20;4.80;;;25.30;99.90;;;;;;4975163;28;20174;-71
2023/10/13 12:14:58;;;;;;;10.27;5.88;;;25.20;99.90;;;;;;4973724;28;20609;-73
2023/10/13 12:17:34;;;;;;;10.85;5.85;;;25.20;99.90;;;;;;4975181;28;20253;-71
2023/10/13 12:20:06;;;;;;;9.52;5.88;;;25.10;99.90;;;;;;4974968;28;20205;-72
2023/10/13 12:22:35;;;;;;;12.25;6.22;;;25.10;99.90;;;;;;4974961;28;20304;-71
2023/10/13 12:25:05;;;;;;;9.85;5.95;;;24.90;99.90;;;;;;4974975;28;20200;-72
2023/10/13 12:27:45;;;;;;;12.90;5.47;;;24.80;99.90;;;;;;4975212;28;20178;-70
2023/10/13 12:30:13;;;;;;;13.63;6.03;;;24.80;99.90;;;;;;4975183;28;20185;-73
2023/10/13 12:32:44;;;;;;;9.35;6.30;;;24.80;99.90;;;;;;4975139;28;20162;-71
2023/10/13 12:37:38;;;;;;;10.02;5.30;;;24.80;99.90;;;;;;4974884;28;20185;-71
2023/10/13 12:53:55;;;;;;;18.70;6.07;;;25.10;99.90;;;;;;4974691;28;20521;-71
2023/10/13 12:56:28;;;;;;;14.98;5.13;;;25.20;99.90;;;;;;4974705;28;20181;-72
2023/10/13 12:58:54;;;;;;;9.07;5.07;;;25.20;99.90;;;;;;4974848;28;20197;-71
2023/10/13 13:01:32;;;;;;;12.70;5.20;;;25.10;99.90;;;;;;4974228;28;20563;-72
2023/10/13 13:03:58;;;;;;;10.48;5.55;;;25.10;99.90;;;;;;4974503;28;20176;-73
2023/10/13 13:06:25;;;;;;;8.68;4.78;;;25.20;99.90;;;;;;4974440;28;20263;-74
2023/10/13 13:08:58;;;;;;;12.40;5.65;;;25.20;99.90;;;;;;4974544;28;20723;-73
2023/10/13 13:11:24;;;;;;;9.93;5.38;;;25.30;99.90;;;;;;4972264;28;20580;-71
2023/10/13 13:13:51;;;;;;;12.43;5.00;;;25.30;99.90;;;;;;4974096;28;20209;-73
2023/10/13 13:16:23;;;;;;;10.10;5.05;;;25.20;99.90;;;;;;4974625;28;20645;-72
2023/10/13 13:18:55;;;;;;;13.32;5.60;;;25.20;99.90;;;;;;4974325;28;20548;-74
2023/10/13 13:21:24;;;;;;;13.45;5.30;;;25.20;99.90;;;;;;4972860;28;20635;-73
2023/10/13 13:23:50;;;;;;;8.50;5.07;;;25.10;99.90;;;;;;4972614;28;20177;-74
2023/10/13 13:26:17;;;;;;;13.02;5.20;;;25.00;99.90;;;;;;4974148;28;20208;-71
2023/10/13 13:28:43;;;;;;;15.80;5.75;;;24.80;99.90;;;;;;4974058;28;20175;-73
2023/10/13 13:31:12;;;;;;;16.33;5.47;;;24.70;99.90;;;;;;4974051;28;20207;-73
2023/10/13 13:33:38;;;;;;;11.73;5.45;;;24.60;99.90;;;;;;4973667;28;20322;-73
2023/10/13 13:36:08;;;;;;;11.93;5.00;;;24.50;99.90;;;;;;4974034;28;20180;-71
2023/10/13 13:38:34;;;;;;;9.38;5.25;;;24.40;99.90;;;;;;4974089;28;20173;-74
2023/10/13 13:41:02;;;;;;;13.60;5.45;;;24.30;99.90;;;;;;4973641;28;20545;-72
2023/10/13 13:46:12;;;;;;;21.08;5.80;;;24.10;99.90;;;;;;4973558;28;20619;-72
2023/10/13 13:48:39;;;;;;;11.00;5.25;;;24.10;99.90;;;;;;4973823;28;20178;-73
2023/10/13 13:51:14;;;;;;;15.63;5.53;;;24.20;99.90;;;;;;4973768;28;20576;-73
2023/10/13 13:53:48;;;;;;;10.35;5.10;;;24.20;99.90;;;;;;4972007;28;20177;-72
2023/10/13 13:56:18;;;;;;;11.00;5.60;;;24.20;99.90;;;;;;4973667;28;20170;-72
2023/10/13 13:58:48;;;;;;;16.83;5.75;;;24.30;99.90;;;;;;4973395;28;20551;-73
2023/10/13 14:01:15;;;;;;;12.13;5.60;;;24.30;99.90;;;;;;4973407;28;20204;-73
2023/10/13 14:03:45;;;;;;;13.38;5.88;;;24.30;99.90;;;;;;4973189;28;20661;-71
2023/10/13 14:06:23;;;;;;;11.45;5.25;;;24.30;99.90;;;;;;4973296;28;20205;-73
2023/10/13 14:08:50;;;;;;;12.75;5.63;;;24.20;99.90;;;;;;4971999;28;20169;-74
2023/10/13 14:14:04;;;;;;;15.07;5.43;;;24.00;99.90;;;;;;4973081;28;20208;-73
2023/10/13 14:16:33;;;;;;;11.20;5.80;;;24.00;99.90;;;;;;4973031;28;20650;-73
2023/10/13 14:19:07;;;;;;;14.55;5.50;;;23.90;99.90;;;;;;4973303;28;20265;-73
2023/10/13 14:21:34;;;;;;;14.07;5.55;;;23.90;99.90;;;;;;4973013;28;20630;-72
2023/10/13 14:24:01;;;;;;;16.17;6.05;;;23.80;99.90;;;;;;4975874;28;20189;-69
2023/10/13 14:26:27;;;;;;;15.45;5.55;;;23.80;99.90;;;;;;4973531;28;20209;-72
2023/10/13 14:31:29;;;;;;;16.30;5.47;;;23.70;99.90;;;;;;4973051;28;20189;-70
2023/10/13 14:33:55;;;;;;;12.13;5.35;;;23.70;99.90;;;;;;4972863;28;20364;-72
2023/10/13 14:36:20;;;;;;;13.18;5.75;;;23.70;99.90;;;;;;4972923;28;20394;-71
2023/10/13 14:38:49;;;;;;;14.07;6.13;;;23.60;99.90;;;;;;4972726;28;20182;-71
2023/10/13 14:41:19;;;;;;;19.23;5.55;;;23.60;99.90;;;;;;4972947;28;20670;-70
2023/10/13 14:43:47;;;;;;;13.27;5.72;;;23.60;99.90;;;;;;4972714;28;20311;-71
2023/10/13 14:46:24;;;;;;;9.07;5.75;;;23.60;99.90;;;;;;4972852;28;20779;-73
2023/10/13 14:48:53;;;;;;;10.30;5.88;;;23.50;99.90;;;;;;4973004;28;20259;-72
2023/10/13 14:51:19;;;;;;;13.52;6.25;;;23.50;99.90;;;;;;4973127;28;20251;-74
2023/10/13 14:53:45;;;;;;;14.63;5.68;;;23.40;99.90;;;;;;4973049;28;20256;-70
2023/10/13 14:56:12;;;;;;;7.65;4.97;;;23.40;99.90;;;;;;4972693;28;20665;-70
2023/10/13 14:58:44;;;;;;;8.52;5.15;;;23.30;99.90;;;;;;4972739;28;20548;-70
2023/10/13 15:01:17;;;;;;;15.80;5.22;;;23.30;99.90;;;;;;4972684;28;20221;-71
2023/10/13 15:03:44;;;;;;;7.53;4.78;;;23.30;99.90;;;;;;4972008;28;20177;-70
2023/10/13 15:06:20;;;;;;;15.13;6.50;;;23.30;99.90;;;;;;4972437;28;20727;-70
2023/10/13 15:08:47;;;;;;;12.68;5.50;;;23.30;99.90;;;;;;4972574;28;20549;-71
2023/10/13 15:11:13;;;;;;;11.88;5.20;;;23.30;99.90;;;;;;4972214;28;20267;-70
2023/10/13 15:13:42;;;;;;;11.77;5.20;;;23.20;99.90;;;;;;4970717;28;20255;-71
2023/10/13 15:16:18;;;;;;;14.10;6.18;;;23.20;99.90;;;;;;4972219;28;20288;-73
2023/10/13 15:18:45;;;;;;;15.02;5.72;;;23.10;99.90;;;;;;4972565;28;20252;-70
2023/10/13 15:21:12;;;;;;;11.70;6.00;;;23.10;99.90;;;;;;4972319;28;20208;-72
2023/10/13 15:23:44;;;;;;;12.93;5.22;;;23.20;99.90;;;;;;4971706;28;20182;-73
2023/10/13 15:26:13;;;;;;;8.13;5.00;;;23.10;99.90;;;;;;4972222;28;20205;-71
2023/10/13 15:28:47;;;;;;;9.52;5.13;;;23.10;99.90;;;;;;4973290;28;20176;-70
2023/10/13 15:31:22;;;;;;;9.95;5.13;;;23.10;99.90;;;;;;4972208;28;20687;-71
2023/10/13 15:33:54;;;;;;;14.52;6.32;;;23.10;99.90;;;;;;4972073;28;20169;-71
2023/10/13 15:36:23;;;;;;;9.27;5.95;;;23.00;99.90;;;;;;4976243;28;20592;-71
2023/10/13 15:38:52;;;;;;;13.85;5.70;;;22.90;99.90;;;;;;4976300;28;20177;-70
2023/10/13 15:41:25;;;;;;;8.20;6.07;;;22.90;99.90;;;;;;4976057;28;20567;-72
2023/10/13 15:43:52;;;;;;;8.77;5.65;;;22.90;99.90;;;;;;4975650;28;20201;-73
2023/10/13 15:46:22;;;;;;;16.13;7.85;;;22.80;99.90;;;;;;4975993;28;20219;-72
2023/10/13 15:48:48;;;;;;;8.02;5.72;;;22.80;99.90;;;;;;4976101;28;20253;-71
2023/10/13 15:51:15;;;;;;;8.13;6.15;;;22.80;99.90;;;;;;4975859;28;20601;-73
2023/10/13 15:53:43;;;;;;;11.73;6.55;;;22.80;99.90;;;;;;4975729;28;20205;-70
2023/10/13 15:56:11;;;;;;;6.57;5.35;;;22.80;99.90;;;;;;4975942;28;20169;-72
2023/10/13 15:58:44;;;;;;;13.48;6.43;;;22.80;99.90;;;;;;4974530;28;20188;-70
2023/10/13 16:01:16;;;;;;;10.82;5.38;;;22.80;99.90;;;;;;4975183;28;20209;-72
2023/10/13 16:03:43;;;;;;;11.15;7.80;;;22.80;99.90;;;;;;4975505;28;20256;-72
2023/10/13 16:06:13;;;;;;;13.65;6.88;;;22.80;99.90;;;;;;4975623;28;20263;-71
2023/10/13 16:08:42;;;;;;;7.25;6.13;;;22.70;99.90;;;;;;4975880;28;20277;-70
2023/10/13 16:11:13;;;;;;;11.20;7.05;;;22.70;99.90;;;;;;4975521;28;20669;-70
2023/10/13 16:13:43;;;;;;;10.02;6.60;;;22.60;99.90;;;;;;4975168;28;20662;-72